Adams Mills, OH

5:15 AM EDT on September 20, 2014 (GMT -0400)
RAWS BLUE ROCK OH US | Change Station
CLOSE
Current Station
Personal Weather Station
Location: Nashport, OH
Elevation: 641 ft
Nearby Weather Stations

Elev 641 ft 40.00 °N, 82.08 °W | Updated 52 minutes ago

Clear
Clear
57 °F
Feels Like 57 °F
N
0
Wind Variable Wind from North
Gusts 0.0 mph

Today
High -- | Low -- °F
--% Chance of Precip.
Yesterday
High -- | Low -- °F
Precip. -- in
7:13 AM 7:28 PM
Waning Crescent, 13% visible
Pressure 30.09 in
Visibility 10.0 miles
Clouds Few 5000 ft
Dew Point 57 °F
Humidity 100%
Rainfall 0.01 in
Snow Depth Not available.
UV 0 out of 12
Pollen 4.50 out of 12
Ozone Good
PM2.5 Moderate
Flu Activity Not available.
METAR KZZV 200853Z AUTO 18006KT 10SM FEW050 16/13 A3010 RMK AO2 SLP189 T01560128 55003

More Conditions Fewer Conditions

Pressure 30.09 in
Visibility 10.0 miles
Clouds Few 5000 ft
Dew Point 57 °F
Humidity 100%
Rainfall 0.01 in
Snow Depth Not available.
UV 0 out of 12
Pollen 4.50 out of 12
Ozone Good
PM2.5 Moderate
Flu Activity Not available.
METAR KZZV 200853Z AUTO 18006KT 10SM FEW050 16/13 A3010 RMK AO2 SLP189 T01560128 55003

More Conditions Fewer Conditions

10-Day Weather Forecast

Almanac

Astronomy

Sep. 20, 2014 Rise Set
Actual Time 7:13 AM EDT 7:28 PM EDT
Civil Twilight 6:46 AM EDT 7:55 PM EDT
Nautical Twilight 6:14 AM EDT 8:27 PM EDT
Astronomical Twilight 5:42 AM EDT 8:59 PM EDT
Moon 3:51 AM EDT 5:31 PM EDT
Length of Visible Light 13h 08m
Length of Day
12h 14m
Tomorrow will be 2m 38s shorter.
Waning Crescent, 13% of the Moon is Illuminated
Today
Waning Crescent
Sep 24
New
Oct 1
First Quarter
Oct 8
Full
Oct 15
Last Quarter

Today's Extremes

State Highs State Lows

Community

WunderPhotos

Upload Photos

1,754,794 photos uploaded!

WunderBlogs® & News

Nearby

Air Quality

  Air Quality AQ Index Pollutant
Yesterday Moderate
PM2.5
Yesterday Good
OZONE
Current Moderate
PM2.5
Current Good
OZONE
Saturday Moderate
PM2.5
Saturday Moderate
OZONE
Sunday Good
OZONE
Sunday Good
PM2.5
Monday Good
OZONE
Monday Good
PM2.5
Tuesday Good
OZONE
Tuesday Good
PM2.5
Wednesday Good
PM2.5
Wednesday Good
OZONE

Snow Depth

Station Depth Elevation
No new snow has been reported.

Earthquake Activity

City Distance Mag. Time & Date
No recent earthquake activity has been reported nearby.
Minimum magnitude displayed is 2.5.

Coastal Water Temperatures

Place Temperature
No Stations Reporting

Nearby Weather Stations